sensor_id;sensor_type;location;lat;lon;timestamp;temperature;humidity
39983;DHT22;25670;44.782;10.356;2024-02-04T00:01:55;4.40;99.90
39983;DHT22;25670;44.782;10.356;2024-02-04T00:09:16;4.00;99.90
39983;DHT22;25670;44.782;10.356;2024-02-04T00:14:08;3.90;99.90
39983;DHT22;25670;44.782;10.356;2024-02-04T00:19:01;4.40;99.90
39983;DHT22;25670;44.782;10.356;2024-02-04T00:21:30;4.60;99.90
39983;DHT22;25670;44.782;10.356;2024-02-04T00:33:52;4.70;98.40
39983;DHT22;25670;44.782;10.356;2024-02-04T00:36:19;4.70;99.90
39983;DHT22;25670;44.782;10.356;2024-02-04T00:38:47;4.60;99.90
39983;DHT22;25670;44.782;10.356;2024-02-04T00:46:07;4.50;99.90
39983;DHT22;25670;44.782;10.356;2024-02-04T00:48:36;4.50;99.90
39983;DHT22;25670;44.782;10.356;2024-02-04T00:51:03;5.70;99.90
39983;DHT22;25670;44.782;10.356;2024-02-04T00:53:32;4.60;99.90
39983;DHT22;25670;44.782;10.356;2024-02-04T00:56:05;4.60;99.90
39983;DHT22;25670;44.782;10.356;2024-02-04T01:01:02;4.80;99.90
39983;DHT22;25670;44.782;10.356;2024-02-04T01:05:55;4.70;99.90
39983;DHT22;25670;44.782;10.356;2024-02-04T01:08:22;4.70;99.90
39983;DHT22;25670;44.782;10.356;2024-02-04T01:10:51;4.70;99.90
39983;DHT22;25670;44.782;10.356;2024-02-04T01:13:18;4.70;99.90
39983;DHT22;25670;44.782;10.356;2024-02-04T01:15:47;5.50;99.90
39983;DHT22;25670;44.782;10.356;2024-02-04T01:18:13;4.70;99.90
39983;DHT22;25670;44.782;10.356;2024-02-04T01:23:06;4.70;99.90
39983;DHT22;25670;44.782;10.356;2024-02-04T01:30:26;4.60;99.90
39983;DHT22;25670;44.782;10.356;2024-02-04T01:32:57;4.60;99.90
39983;DHT22;25670;44.782;10.356;2024-02-04T01:37:50;4.30;99.90
39983;DHT22;25670;44.782;10.356;2024-02-04T01:40:16;4.30;99.90
39983;DHT22;25670;44.782;10.356;2024-02-04T01:42:42;4.30;99.90
39983;DHT22;25670;44.782;10.356;2024-02-04T01:47:36;4.30;99.90
39983;DHT22;25670;44.782;10.356;2024-02-04T01:50:03;4.40;99.90
39983;DHT22;25670;44.782;10.356;2024-02-04T01:52:31;4.50;99.90
39983;DHT22;25670;44.782;10.356;2024-02-04T01:54:59;4.20;99.90
39983;DHT22;25670;44.782;10.356;2024-02-04T01:57:26;4.40;97.40
39983;DHT22;25670;44.782;10.356;2024-02-04T01:59:53;4.40;99.00
39983;DHT22;25670;44.782;10.356;2024-02-04T02:04:49;4.40;99.90
39983;DHT22;25670;44.782;10.356;2024-02-04T02:09:46;4.70;99.90
39983;DHT22;25670;44.782;10.356;2024-02-04T02:14:44;4.20;99.90
39983;DHT22;25670;44.782;10.356;2024-02-04T02:17:57;4.40;99.90
39983;DHT22;25670;44.782;10.356;2024-02-04T02:23:17;4.50;99.90
39983;DHT22;25670;44.782;10.356;2024-02-04T02:25:51;4.40;99.90
39983;DHT22;25670;44.782;10.356;2024-02-04T02:28:18;3.60;99.90
39983;DHT22;25670;44.782;10.356;2024-02-04T02:30:44;4.50;99.90
39983;DHT22;25670;44.782;10.356;2024-02-04T02:33:11;5.00;99.90
39983;DHT22;25670;44.782;10.356;2024-02-04T02:35:37;4.60;99.90
39983;DHT22;25670;44.782;10.356;2024-02-04T02:38:20;4.60;99.90
39983;DHT22;25670;44.782;10.356;2024-02-04T02:40:51;4.70;99.90
39983;DHT22;25670;44.782;10.356;2024-02-04T02:43:21;4.70;99.90
39983;DHT22;25670;44.782;10.356;2024-02-04T02:48:15;4.60;99.90
39983;DHT22;25670;44.782;10.356;2024-02-04T02:50:42;4.60;99.90
39983;DHT22;25670;44.782;10.356;2024-02-04T02:53:08;4.50;99.90
39983;DHT22;25670;44.782;10.356;2024-02-04T03:02:54;4.40;99.90
39983;DHT22;25670;44.782;10.356;2024-02-04T03:15:08;5.00;99.90
39983;DHT22;25670;44.782;10.356;2024-02-04T03:20:01;4.60;99.90
39983;DHT22;25670;44.782;10.356;2024-02-04T03:22:28;4.80;99.90
39983;DHT22;25670;44.782;10.356;2024-02-04T03:27:22;4.70;99.90
39983;DHT22;25670;44.782;10.356;2024-02-04T03:29:49;4.80;99.90
39983;DHT22;25670;44.782;10.356;2024-02-04T03:32:15;4.90;99.90
39983;DHT22;25670;44.782;10.356;2024-02-04T03:34:42;4.80;99.90
39983;DHT22;25670;44.782;10.356;2024-02-04T03:37:08;4.60;99.90
39983;DHT22;25670;44.782;10.356;2024-02-04T03:49:22;4.30;99.90
39983;DHT22;25670;44.782;10.356;2024-02-04T03:51:50;4.00;99.90
39983;DHT22;25670;44.782;10.356;2024-02-04T04:01:47;4.20;99.90
39983;DHT22;25670;44.782;10.356;2024-02-04T04:04:14;4.30;99.90
39983;DHT22;25670;44.782;10.356;2024-02-04T04:06:42;4.20;99.90
39983;DHT22;25670;44.782;10.356;2024-02-04T04:09:08;4.10;99.90
39983;DHT22;25670;44.782;10.356;2024-02-04T04:11:34;4.20;99.90
39983;DHT22;25670;44.782;10.356;2024-02-04T04:14:01;4.20;99.90
39983;DHT22;25670;44.782;10.356;2024-02-04T04:16:27;4.10;99.90
39983;DHT22;25670;44.782;10.356;2024-02-04T04:21:21;3.90;99.90
39983;DHT22;25670;44.782;10.356;2024-02-04T04:26:13;3.70;99.90
39983;DHT22;25670;44.782;10.356;2024-02-04T04:28:43;3.70;99.90
39983;DHT22;25670;44.782;10.356;2024-02-04T04:33:38;3.50;99.90
39983;DHT22;25670;44.782;10.356;2024-02-04T04:36:07;2.70;99.90
39983;DHT22;25670;44.782;10.356;2024-02-04T04:38:34;3.10;99.90
39983;DHT22;25670;44.782;10.356;2024-02-04T04:41:03;3.20;99.90
39983;DHT22;25670;44.782;10.356;2024-02-04T04:43:30;3.10;99.90
39983;DHT22;25670;44.782;10.356;2024-02-04T04:45:56;3.10;99.90
39983;DHT22;25670;44.782;10.356;2024-02-04T04:53:18;3.10;99.90
39983;DHT22;25670;44.782;10.356;2024-02-04T04:58:11;3.10;99.90
39983;DHT22;25670;44.782;10.356;2024-02-04T05:00:37;3.10;99.90
39983;DHT22;25670;44.782;10.356;2024-02-04T05:03:04;3.20;99.90
39983;DHT22;25670;44.782;10.356;2024-02-04T05:05:30;3.20;99.90
39983;DHT22;25670;44.782;10.356;2024-02-04T05:10:23;3.30;99.90
39983;DHT22;25670;44.782;10.356;2024-02-04T05:12:50;4.20;99.90
39983;DHT22;25670;44.782;10.356;2024-02-04T05:15:16;3.50;99.90
39983;DHT22;25670;44.782;10.356;2024-02-04T05:17:42;3.50;99.90
39983;DHT22;25670;44.782;10.356;2024-02-04T05:20:09;3.50;99.90
39983;DHT22;25670;44.782;10.356;2024-02-04T05:22:36;3.40;99.90
39983;DHT22;25670;44.782;10.356;2024-02-04T05:25:02;3.30;99.90
39983;DHT22;25670;44.782;10.356;2024-02-04T05:27:30;1.20;99.90
39983;DHT22;25670;44.782;10.356;2024-02-04T05:29:57;3.30;99.90
39983;DHT22;25670;44.782;10.356;2024-02-04T05:37:16;3.00;99.90
39983;DHT22;25670;44.782;10.356;2024-02-04T05:39:42;3.00;99.90
39983;DHT22;25670;44.782;10.356;2024-02-04T05:51:55;2.60;99.90
39983;DHT22;25670;44.782;10.356;2024-02-04T05:56:47;2.40;99.90
39983;DHT22;25670;44.782;10.356;2024-02-04T06:01:42;2.20;99.90
39983;DHT22;25670;44.782;10.356;2024-02-04T06:16:21;2.50;99.90
39983;DHT22;25670;44.782;10.356;2024-02-04T06:18:48;2.60;99.90
39983;DHT22;25670;44.782;10.356;2024-02-04T06:23:40;2.50;99.90
39983;DHT22;25670;44.782;10.356;2024-02-04T06:28:33;2.80;99.90
39983;DHT22;25670;44.782;10.356;2024-02-04T06:48:07;2.90;99.90
39983;DHT22;25670;44.782;10.356;2024-02-04T06:50:33;3.00;99.90
39983;DHT22;25670;44.782;10.356;2024-02-04T06:57:52;2.90;99.90
39983;DHT22;25670;44.782;10.356;2024-02-04T07:00:19;3.00;99.90
39983;DHT22;25670;44.782;10.356;2024-02-04T07:02:47;2.90;99.90
39983;DHT22;25670;44.782;10.356;2024-02-04T07:05:13;3.00;99.90
39983;DHT22;25670;44.782;10.356;2024-02-04T07:07:41;3.00;99.90
39983;DHT22;25670;44.782;10.356;2024-02-04T07:10:08;4.40;99.90
39983;DHT22;25670;44.782;10.356;2024-02-04T07:12:34;2.70;99.90
39983;DHT22;25670;44.782;10.356;2024-02-04T07:15:00;2.80;99.90
39983;DHT22;25670;44.782;10.356;2024-02-04T07:17:27;4.40;99.90
39983;DHT22;25670;44.782;10.356;2024-02-04T07:19:53;3.00;99.90
39983;DHT22;25670;44.782;10.356;2024-02-04T07:22:19;3.40;99.90
39983;DHT22;25670;44.782;10.356;2024-02-04T07:24:46;3.00;99.90
39983;DHT22;25670;44.782;10.356;2024-02-04T07:27:12;3.00;99.90
39983;DHT22;25670;44.782;10.356;2024-02-04T07:29:38;3.00;99.90
39983;DHT22;25670;44.782;10.356;2024-02-04T07:32:04;3.10;99.90
39983;DHT22;25670;44.782;10.356;2024-02-04T07:34:31;3.10;99.90
39983;DHT22;25670;44.782;10.356;2024-02-04T07:36:57;3.20;99.90
39983;DHT22;25670;44.782;10.356;2024-02-04T07:39:24;3.20;99.90
39983;DHT22;25670;44.782;10.356;2024-02-04T07:41:50;3.40;99.90
39983;DHT22;25670;44.782;10.356;2024-02-04T07:44:16;3.40;99.90
39983;DHT22;25670;44.782;10.356;2024-02-04T07:46:42;3.40;99.90
39983;DHT22;25670;44.782;10.356;2024-02-04T07:49:08;3.50;99.90
39983;DHT22;25670;44.782;10.356;2024-02-04T07:51:35;3.70;99.90
39983;DHT22;25670;44.782;10.356;2024-02-04T07:54:02;3.70;99.90
39983;DHT22;25670;44.782;10.356;2024-02-04T07:56:28;3.90;99.90
39983;DHT22;25670;44.782;10.356;2024-02-04T07:58:55;4.00;99.90
39983;DHT22;25670;44.782;10.356;2024-02-04T08:01:24;4.00;99.90
39983;DHT22;25670;44.782;10.356;2024-02-04T08:03:51;4.10;99.90
39983;DHT22;25670;44.782;10.356;2024-02-04T08:06:17;4.30;99.90
39983;DHT22;25670;44.782;10.356;2024-02-04T08:08:43;4.40;99.90
39983;DHT22;25670;44.782;10.356;2024-02-04T08:11:10;4.50;99.90
39983;DHT22;25670;44.782;10.356;2024-02-04T08:13:41;4.50;99.90
39983;DHT22;25670;44.782;10.356;2024-02-04T08:16:17;4.60;99.90
39983;DHT22;25670;44.782;10.356;2024-02-04T08:18:43;4.70;99.90
39983;DHT22;25670;44.782;10.356;2024-02-04T08:21:09;4.80;99.90
39983;DHT22;25670;44.782;10.356;2024-02-04T08:23:35;4.90;99.90
39983;DHT22;25670;44.782;10.356;2024-02-04T08:26:02;5.00;99.90
39983;DHT22;25670;44.782;10.356;2024-02-04T08:28:31;5.20;99.90
39983;DHT22;25670;44.782;10.356;2024-02-04T08:30:57;5.30;99.90
39983;DHT22;25670;44.782;10.356;2024-02-04T08:33:27;5.10;99.90
39983;DHT22;25670;44.782;10.356;2024-02-04T08:35:53;5.60;99.90
39983;DHT22;25670;44.782;10.356;2024-02-04T08:38:22;5.80;99.90
39983;DHT22;25670;44.782;10.356;2024-02-04T08:40:49;5.90;99.90
39983;DHT22;25670;44.782;10.356;2024-02-04T08:43:21;6.30;99.90
39983;DHT22;25670;44.782;10.356;2024-02-04T08:45:51;6.20;99.90
39983;DHT22;25670;44.782;10.356;2024-02-04T08:48:17;6.30;99.90
39983;DHT22;25670;44.782;10.356;2024-02-04T08:53:10;6.60;99.90
39983;DHT22;25670;44.782;10.356;2024-02-04T08:55:36;6.80;99.90
39983;DHT22;25670;44.782;10.356;2024-02-04T08:58:02;6.90;98.90
39983;DHT22;25670;44.782;10.356;2024-02-04T09:00:29;7.10;94.10
39983;DHT22;25670;44.782;10.356;2024-02-04T09:02:55;7.60;87.50
39983;DHT22;25670;44.782;10.356;2024-02-04T09:05:22;7.50;76.50
39983;DHT22;25670;44.782;10.356;2024-02-04T09:07:48;7.70;69.60
39983;DHT22;25670;44.782;10.356;2024-02-04T09:10:14;7.90;66.40
39983;DHT22;25670;44.782;10.356;2024-02-04T09:12:41;8.10;59.90
39983;DHT22;25670;44.782;10.356;2024-02-04T09:15:07;8.30;63.60
39983;DHT22;25670;44.782;10.356;2024-02-04T09:17:34;8.50;53.90
39983;DHT22;25670;44.782;10.356;2024-02-04T09:20:00;8.60;42.70
39983;DHT22;25670;44.782;10.356;2024-02-04T09:22:27;7.50;30.00
39983;DHT22;25670;44.782;10.356;2024-02-04T09:24:53;9.00;26.00
39983;DHT22;25670;44.782;10.356;2024-02-04T09:27:20;9.30;21.40
39983;DHT22;25670;44.782;10.356;2024-02-04T09:29:46;9.50;13.00
39983;DHT22;25670;44.782;10.356;2024-02-04T09:32:12;9.80;5.40
39983;DHT22;25670;44.782;10.356;2024-02-04T09:34:39;10.10;1.00
39983;DHT22;25670;44.782;10.356;2024-02-04T09:37:06;10.40;1.00
39983;DHT22;25670;44.782;10.356;2024-02-04T09:39:55;10.70;1.00
39983;DHT22;25670;44.782;10.356;2024-02-04T09:42:24;11.00;1.00
39983;DHT22;25670;44.782;10.356;2024-02-04T09:44:51;11.30;1.00
39983;DHT22;25670;44.782;10.356;2024-02-04T09:47:19;11.50;1.00
39983;DHT22;25670;44.782;10.356;2024-02-04T09:49:46;11.80;1.00
39983;DHT22;25670;44.782;10.356;2024-02-04T09:52:13;11.90;1.00
39983;DHT22;25670;44.782;10.356;2024-02-04T09:54:48;12.20;1.00
39983;DHT22;25670;44.782;10.356;2024-02-04T09:57:16;12.40;99.90
39983;DHT22;25670;44.782;10.356;2024-02-04T09:59:44;12.50;99.90
39983;DHT22;25670;44.782;10.356;2024-02-04T10:02:10;12.60;99.90
39983;DHT22;25670;44.782;10.356;2024-02-04T10:04:42;12.60;99.90
39983;DHT22;25670;44.782;10.356;2024-02-04T10:07:09;12.60;99.90
39983;DHT22;25670;44.782;10.356;2024-02-04T10:09:36;12.60;99.90
39983;DHT22;25670;44.782;10.356;2024-02-04T10:12:03;12.60;99.90
39983;DHT22;25670;44.782;10.356;2024-02-04T10:14:30;12.60;99.90
39983;DHT22;25670;44.782;10.356;2024-02-04T10:16:57;12.60;99.90
39983;DHT22;25670;44.782;10.356;2024-02-04T10:19:26;12.70;99.90
39983;DHT22;25670;44.782;10.356;2024-02-04T10:22:02;12.60;99.90
39983;DHT22;25670;44.782;10.356;2024-02-04T10:24:32;12.50;99.90
39983;DHT22;25670;44.782;10.356;2024-02-04T10:26:58;12.60;99.90
39983;DHT22;25670;44.782;10.356;2024-02-04T10:29:25;12.50;99.90
39983;DHT22;25670;44.782;10.356;2024-02-04T10:31:55;12.70;99.90
39983;DHT22;25670;44.782;10.356;2024-02-04T10:34:32;12.70;99.90
39983;DHT22;25670;44.782;10.356;2024-02-04T10:37:02;12.90;99.90
39983;DHT22;25670;44.782;10.356;2024-02-04T10:39:28;13.00;99.90
39983;DHT22;25670;44.782;10.356;2024-02-04T10:41:56;13.20;99.90
39983;DHT22;25670;44.782;10.356;2024-02-04T10:44:27;13.10;99.90
39983;DHT22;25670;44.782;10.356;2024-02-04T10:46:58;13.10;99.90
39983;DHT22;25670;44.782;10.356;2024-02-04T10:49:28;13.20;99.90
39983;DHT22;25670;44.782;10.356;2024-02-04T10:51:56;13.30;99.90
39983;DHT22;25670;44.782;10.356;2024-02-04T10:54:24;13.30;99.90
39983;DHT22;25670;44.782;10.356;2024-02-04T10:56:56;13.40;93.30
39983;DHT22;25670;44.782;10.356;2024-02-04T10:59:31;13.50;99.90
39983;DHT22;25670;44.782;10.356;2024-02-04T11:01:59;13.40;99.90
39983;DHT22;25670;44.782;10.356;2024-02-04T11:04:26;13.30;99.90
39983;DHT22;25670;44.782;10.356;2024-02-04T11:06:55;13.30;99.90
39983;DHT22;25670;44.782;10.356;2024-02-04T11:09:31;13.40;99.90
39983;DHT22;25670;44.782;10.356;2024-02-04T11:11:59;13.50;99.90
39983;DHT22;25670;44.782;10.356;2024-02-04T11:14:27;13.60;99.90
39983;DHT22;25670;44.782;10.356;2024-02-04T11:19:51;13.80;99.90
39983;DHT22;25670;44.782;10.356;2024-02-04T11:22:47;13.80;57.00
39983;DHT22;25670;44.782;10.356;2024-02-04T11:25:32;13.90;5.60
39983;DHT22;25670;44.782;10.356;2024-02-04T11:28:03;13.90;1.00
39983;DHT22;25670;44.782;10.356;2024-02-04T11:30:36;14.00;1.00
39983;DHT22;25670;44.782;10.356;2024-02-04T11:33:11;14.10;1.00
39983;DHT22;25670;44.782;10.356;2024-02-04T11:35:37;14.20;99.90
39983;DHT22;25670;44.782;10.356;2024-02-04T11:38:04;14.30;99.90
39983;DHT22;25670;44.782;10.356;2024-02-04T11:40:37;14.40;99.90
39983;DHT22;25670;44.782;10.356;2024-02-04T11:43:05;14.50;99.90
39983;DHT22;25670;44.782;10.356;2024-02-04T11:45:31;14.50;99.90
39983;DHT22;25670;44.782;10.356;2024-02-04T11:48:01;14.60;99.90
39983;DHT22;25670;44.782;10.356;2024-02-04T11:50:31;14.60;99.90
39983;DHT22;25670;44.782;10.356;2024-02-04T11:53:09;14.60;99.90
39983;DHT22;25670;44.782;10.356;2024-02-04T11:55:36;14.70;99.90
39983;DHT22;25670;44.782;10.356;2024-02-04T11:58:08;14.80;99.90
39983;DHT22;25670;44.782;10.356;2024-02-04T12:00:36;14.90;99.90
39983;DHT22;25670;44.782;10.356;2024-02-04T12:03:04;14.90;38.30
39983;DHT22;25670;44.782;10.356;2024-02-04T12:05:32;14.90;20.50
39983;DHT22;25670;44.782;10.356;2024-02-04T12:08:05;15.00;56.50
39983;DHT22;25670;44.782;10.356;2024-02-04T12:10:33;15.10;1.00
39983;DHT22;25670;44.782;10.356;2024-02-04T12:13:06;15.10;1.00
39983;DHT22;25670;44.782;10.356;2024-02-04T12:15:41;15.10;1.00
39983;DHT22;25670;44.782;10.356;2024-02-04T12:18:09;15.20;1.00
39983;DHT22;25670;44.782;10.356;2024-02-04T12:20:37;15.20;1.00
39983;DHT22;25670;44.782;10.356;2024-02-04T12:23:07;15.30;39.60
39983;DHT22;25670;44.782;10.356;2024-02-04T12:25:35;15.40;1.00
39983;DHT22;25670;44.782;10.356;2024-02-04T12:28:02;15.50;1.00
39983;DHT22;25670;44.782;10.356;2024-02-04T12:30:30;15.60;99.90
39983;DHT22;25670;44.782;10.356;2024-02-04T12:33:04;15.80;99.90
39983;DHT22;25670;44.782;10.356;2024-02-04T12:35:31;16.00;99.90
39983;DHT22;25670;44.782;10.356;2024-02-04T12:37:58;16.20;99.90
39983;DHT22;25670;44.782;10.356;2024-02-04T12:40:29;16.90;99.90
39983;DHT22;25670;44.782;10.356;2024-02-04T12:42:57;17.50;99.90
39983;DHT22;25670;44.782;10.356;2024-02-04T12:45:25;18.20;99.90
39983;DHT22;25670;44.782;10.356;2024-02-04T12:47:52;18.80;99.90
39983;DHT22;25670;44.782;10.356;2024-02-04T12:50:20;19.30;5.00
39983;DHT22;25670;44.782;10.356;2024-02-04T12:52:48;19.20;99.90
39983;DHT22;25670;44.782;10.356;2024-02-04T12:55:25;19.60;99.90
39983;DHT22;25670;44.782;10.356;2024-02-04T12:58:08;19.90;1.00
39983;DHT22;25670;44.782;10.356;2024-02-04T13:00:36;20.10;99.90
39983;DHT22;25670;44.782;10.356;2024-02-04T13:03:04;20.10;99.90
39983;DHT22;25670;44.782;10.356;2024-02-04T13:05:30;20.20;99.90
39983;DHT22;25670;44.782;10.356;2024-02-04T13:08:00;20.30;99.90
39983;DHT22;25670;44.782;10.356;2024-02-04T13:10:32;20.80;91.80
39983;DHT22;25670;44.782;10.356;2024-02-04T13:13:07;20.80;1.00
39983;DHT22;25670;44.782;10.356;2024-02-04T13:15:44;20.90;99.90
39983;DHT22;25670;44.782;10.356;2024-02-04T13:18:11;21.30;99.90
39983;DHT22;25670;44.782;10.356;2024-02-04T13:20:38;21.80;99.90
39983;DHT22;25670;44.782;10.356;2024-02-04T13:23:06;21.80;99.90
39983;DHT22;25670;44.782;10.356;2024-02-04T13:25:33;21.50;99.90
39983;DHT22;25670;44.782;10.356;2024-02-04T13:27:59;21.00;99.90
39983;DHT22;25670;44.782;10.356;2024-02-04T13:30:27;21.40;99.90
39983;DHT22;25670;44.782;10.356;2024-02-04T13:32:54;21.70;99.90
39983;DHT22;25670;44.782;10.356;2024-02-04T13:35:20;22.10;99.90
39983;DHT22;25670;44.782;10.356;2024-02-04T13:37:48;22.10;41.30
39983;DHT22;25670;44.782;10.356;2024-02-04T13:40:18;22.20;23.40
39983;DHT22;25670;44.782;10.356;2024-02-04T13:42:45;22.00;10.60
39983;DHT22;25670;44.782;10.356;2024-02-04T13:45:12;21.80;1.00
39983;DHT22;25670;44.782;10.356;2024-02-04T13:47:43;21.50;9.00
39983;DHT22;25670;44.782;10.356;2024-02-04T13:50:10;20.90;44.50
39983;DHT22;25670;44.782;10.356;2024-02-04T13:52:36;20.40;99.90
39983;DHT22;25670;44.782;10.356;2024-02-04T13:55:03;19.60;99.90
39983;DHT22;25670;44.782;10.356;2024-02-04T13:57:36;18.90;99.90
39983;DHT22;25670;44.782;10.356;2024-02-04T14:00:03;18.80;63.40
39983;DHT22;25670;44.782;10.356;2024-02-04T14:02:33;18.90;99.90
39983;DHT22;25670;44.782;10.356;2024-02-04T14:05:00;18.60;99.90
39983;DHT22;25670;44.782;10.356;2024-02-04T14:07:26;18.60;99.90
39983;DHT22;25670;44.782;10.356;2024-02-04T14:09:53;18.70;99.90
39983;DHT22;25670;44.782;10.356;2024-02-04T14:14:47;18.90;99.90
39983;DHT22;25670;44.782;10.356;2024-02-04T14:17:17;18.40;99.90
39983;DHT22;25670;44.782;10.356;2024-02-04T14:19:44;18.10;99.90
39983;DHT22;25670;44.782;10.356;2024-02-04T14:22:15;18.20;98.40
39983;DHT22;25670;44.782;10.356;2024-02-04T14:24:43;17.90;40.00
39983;DHT22;25670;44.782;10.356;2024-02-04T14:27:11;17.40;99.90
39983;DHT22;25670;44.782;10.356;2024-02-04T14:29:37;17.30;20.20
39983;DHT22;25670;44.782;10.356;2024-02-04T14:32:04;17.00;1.00
39983;DHT22;25670;44.782;10.356;2024-02-04T14:34:31;16.90;99.90
39983;DHT22;25670;44.782;10.356;2024-02-04T14:36:57;16.90;99.90
39983;DHT22;25670;44.782;10.356;2024-02-04T14:39:24;16.70;1.00
39983;DHT22;25670;44.782;10.356;2024-02-04T14:41:50;16.50;99.90
39983;DHT22;25670;44.782;10.356;2024-02-04T14:44:18;16.30;1.00
39983;DHT22;25670;44.782;10.356;2024-02-04T14:46:51;16.20;99.90
39983;DHT22;25670;44.782;10.356;2024-02-04T14:49:18;16.20;99.90
39983;DHT22;25670;44.782;10.356;2024-02-04T14:54:29;16.20;1.00
39983;DHT22;25670;44.782;10.356;2024-02-04T14:56:59;16.30;99.90
39983;DHT22;25670;44.782;10.356;2024-02-04T14:59:25;16.20;5.50
39983;DHT22;25670;44.782;10.356;2024-02-04T15:01:52;16.10;90.20
39983;DHT22;25670;44.782;10.356;2024-02-04T15:04:18;15.80;99.90
39983;DHT22;25670;44.782;10.356;2024-02-04T15:06:44;15.70;1.00
39983;DHT22;25670;44.782;10.356;2024-02-04T15:09:11;15.40;99.90
39983;DHT22;25670;44.782;10.356;2024-02-04T15:11:38;15.20;99.90
39983;DHT22;25670;44.782;10.356;2024-02-04T15:14:13;15.00;99.90
39983;DHT22;25670;44.782;10.356;2024-02-04T15:16:40;14.90;1.00
39983;DHT22;25670;44.782;10.356;2024-02-04T15:19:07;14.90;1.00
39983;DHT22;25670;44.782;10.356;2024-02-04T15:21:34;15.00;99.90
39983;DHT22;25670;44.782;10.356;2024-02-04T15:24:05;15.00;1.00
39983;DHT22;25670;44.782;10.356;2024-02-04T15:26:33;15.10;99.90
39983;DHT22;25670;44.782;10.356;2024-02-04T15:29:03;15.00;99.90
39983;DHT22;25670;44.782;10.356;2024-02-04T15:31:35;13.90;1.00
39983;DHT22;25670;44.782;10.356;2024-02-04T15:34:02;15.20;99.90
39983;DHT22;25670;44.782;10.356;2024-02-04T15:36:35;15.40;99.90
39983;DHT22;25670;44.782;10.356;2024-02-04T15:39:02;15.50;99.90
39983;DHT22;25670;44.782;10.356;2024-02-04T15:41:29;15.40;99.90
39983;DHT22;25670;44.782;10.356;2024-02-04T15:43:55;15.40;99.90
39983;DHT22;25670;44.782;10.356;2024-02-04T15:46:23;15.20;99.90
39983;DHT22;25670;44.782;10.356;2024-02-04T15:48:52;15.00;99.90
39983;DHT22;25670;44.782;10.356;2024-02-04T15:51:19;15.10;99.90
39983;DHT22;25670;44.782;10.356;2024-02-04T15:53:46;15.00;99.90
39983;DHT22;25670;44.782;10.356;2024-02-04T15:56:13;14.90;99.90
39983;DHT22;25670;44.782;10.356;2024-02-04T15:58:41;15.00;1.00
39983;DHT22;25670;44.782;10.356;2024-02-04T16:01:11;15.10;99.90
39983;DHT22;25670;44.782;10.356;2024-02-04T16:03:44;15.20;99.90
39983;DHT22;25670;44.782;10.356;2024-02-04T16:06:11;15.10;99.90
39983;DHT22;25670;44.782;10.356;2024-02-04T16:08:37;14.40;1.00
39983;DHT22;25670;44.782;10.356;2024-02-04T16:11:08;14.70;1.00
39983;DHT22;25670;44.782;10.356;2024-02-04T16:13:38;14.80;1.00
39983;DHT22;25670;44.782;10.356;2024-02-04T16:16:06;14.80;1.00
39983;DHT22;25670;44.782;10.356;2024-02-04T16:18:35;14.80;1.00
39983;DHT22;25670;44.782;10.356;2024-02-04T16:21:02;14.60;1.00
39983;DHT22;25670;44.782;10.356;2024-02-04T16:23:29;14.20;35.60
39983;DHT22;25670;44.782;10.356;2024-02-04T16:25:58;13.70;99.90
39983;DHT22;25670;44.782;10.356;2024-02-04T16:28:26;13.40;99.90
39983;DHT22;25670;44.782;10.356;2024-02-04T16:30:55;13.10;99.90
39983;DHT22;25670;44.782;10.356;2024-02-04T16:33:21;12.80;99.90
39983;DHT22;25670;44.782;10.356;2024-02-04T16:35:48;12.50;99.90
39983;DHT22;25670;44.782;10.356;2024-02-04T16:38:15;12.20;1.00
39983;DHT22;25670;44.782;10.356;2024-02-04T16:40:41;11.60;1.00
39983;DHT22;25670;44.782;10.356;2024-02-04T16:43:08;11.70;1.00
39983;DHT22;25670;44.782;10.356;2024-02-04T16:45:34;11.50;1.00
39983;DHT22;25670;44.782;10.356;2024-02-04T16:48:01;11.20;17.40
39983;DHT22;25670;44.782;10.356;2024-02-04T16:50:28;11.00;27.30
39983;DHT22;25670;44.782;10.356;2024-02-04T16:52:54;10.90;22.20
39983;DHT22;25670;44.782;10.356;2024-02-04T16:55:24;10.70;39.20
39983;DHT22;25670;44.782;10.356;2024-02-04T16:57:53;10.60;54.60
39983;DHT22;25670;44.782;10.356;2024-02-04T17:00:20;10.30;90.70
39983;DHT22;25670;44.782;10.356;2024-02-04T17:02:46;10.30;83.00
39983;DHT22;25670;44.782;10.356;2024-02-04T17:05:13;10.30;92.80
39983;DHT22;25670;44.782;10.356;2024-02-04T17:07:40;10.20;95.00
39983;DHT22;25670;44.782;10.356;2024-02-04T17:10:09;10.10;99.90
39983;DHT22;25670;44.782;10.356;2024-02-04T17:12:36;10.00;99.90
39983;DHT22;25670;44.782;10.356;2024-02-04T17:15:03;10.00;99.90
39983;DHT22;25670;44.782;10.356;2024-02-04T17:17:33;9.90;99.90
39983;DHT22;25670;44.782;10.356;2024-02-04T17:20:08;9.90;99.90
39983;DHT22;25670;44.782;10.356;2024-02-04T17:22:42;9.70;99.90
39983;DHT22;25670;44.782;10.356;2024-02-04T17:25:10;9.50;99.90
39983;DHT22;25670;44.782;10.356;2024-02-04T17:27:40;9.50;99.90
39983;DHT22;25670;44.782;10.356;2024-02-04T17:30:11;9.50;99.90
39983;DHT22;25670;44.782;10.356;2024-02-04T17:32:39;9.40;99.90
39983;DHT22;25670;44.782;10.356;2024-02-04T17:35:06;9.30;99.90
39983;DHT22;25670;44.782;10.356;2024-02-04T17:37:34;9.20;99.90
39983;DHT22;25670;44.782;10.356;2024-02-04T17:47:25;9.10;99.90
39983;DHT22;25670;44.782;10.356;2024-02-04T17:49:56;9.10;99.90
39983;DHT22;25670;44.782;10.356;2024-02-04T17:52:23;9.10;99.90
39983;DHT22;25670;44.782;10.356;2024-02-04T17:59:49;8.80;99.90
39983;DHT22;25670;44.782;10.356;2024-02-04T18:02:16;8.80;99.90
39983;DHT22;25670;44.782;10.356;2024-02-04T18:04:44;8.50;99.90
39983;DHT22;25670;44.782;10.356;2024-02-04T18:12:07;8.30;99.90
39983;DHT22;25670;44.782;10.356;2024-02-04T18:14:34;8.20;99.90
39983;DHT22;25670;44.782;10.356;2024-02-04T18:21:58;8.00;99.90
39983;DHT22;25670;44.782;10.356;2024-02-04T18:24:24;8.00;99.90
39983;DHT22;25670;44.782;10.356;2024-02-04T18:26:51;8.00;99.90
39983;DHT22;25670;44.782;10.356;2024-02-04T18:46:39;7.90;99.90
39983;DHT22;25670;44.782;10.356;2024-02-04T18:56:24;8.00;99.90
39983;DHT22;25670;44.782;10.356;2024-02-04T18:58:51;8.00;99.90
39983;DHT22;25670;44.782;10.356;2024-02-04T19:03:49;7.90;99.90
39983;DHT22;25670;44.782;10.356;2024-02-04T19:06:25;7.90;99.90
39983;DHT22;25670;44.782;10.356;2024-02-04T19:08:52;7.70;99.90
39983;DHT22;25670;44.782;10.356;2024-02-04T19:16:22;7.90;99.90
39983;DHT22;25670;44.782;10.356;2024-02-04T19:18:49;7.80;99.90
39983;DHT22;25670;44.782;10.356;2024-02-04T19:21:16;7.90;99.90
39983;DHT22;25670;44.782;10.356;2024-02-04T19:28:38;7.90;99.90
39983;DHT22;25670;44.782;10.356;2024-02-04T19:31:04;7.90;99.90